Time;durP1;ratioP1;P1;durP2;ratioP2;P2;SDS_P1;SDS_P2;PMS_P1;PMS_P2;Temp;Humidity;BMP_temperature;BMP_pressure;BME280_temperature;BME280_humidity;BME280_pressure;Samples;Min_cycle;Max_cycle;Signal;HPM_P1;HPM_P2
2023/03/01 00:01:21;;;;;;;17.08;9.98;;;-2.10;99.90;;;;;;5060322;28;20025;-82
2023/03/01 00:03:47;;;;;;;18.10;9.95;;;-2.10;99.90;;;;;;5065463;28;20074;-82
2023/03/01 00:06:13;;;;;;;16.05;9.77;;;-2.10;99.90;;;;;;5057846;28;20068;-84
2023/03/01 00:08:39;;;;;;;20.33;10.30;;;-2.10;99.90;;;;;;5063564;28;20111;-83
2023/03/01 00:11:19;;;;;;;18.95;9.55;;;-2.10;99.90;;;;;;5062580;28;20107;-83
2023/03/01 00:13:46;;;;;;;20.20;10.63;;;-2.10;99.90;;;;;;5065077;28;20078;-83
2023/03/01 00:16:18;;;;;;;15.48;9.57;;;-2.00;99.90;;;;;;5060113;28;20078;-83
2023/03/01 00:18:44;;;;;;;23.05;11.05;;;-2.00;99.90;;;;;;5065917;28;20093;-83
2023/03/01 00:21:10;;;;;;;21.08;11.07;;;-2.00;99.90;;;;;;5060348;28;20532;-83
2023/03/01 00:23:36;;;;;;;21.05;11.43;;;-2.10;99.90;;;;;;5065004;28;20035;-83
2023/03/01 00:26:02;;;;;;;24.73;11.20;;;-2.10;99.90;;;;;;5056707;28;20049;-83
2023/03/01 00:28:28;;;;;;;18.05;10.43;;;-2.20;99.90;;;;;;5062916;28;20029;-83
2023/03/01 00:30:53;;;;;;;17.40;8.75;;;-2.30;99.90;;;;;;5063736;28;20138;-83
2023/03/01 00:33:19;;;;;;;16.60;8.82;;;-2.30;99.90;;;;;;5058374;28;20116;-83
2023/03/01 00:35:44;;;;;;;14.98;9.70;;;-2.30;99.90;;;;;;5067644;28;20052;-83
2023/03/01 00:38:11;;;;;;;20.35;10.25;;;-2.30;99.90;;;;;;5060731;28;20045;-84
2023/03/01 00:40:36;;;;;;;20.70;10.10;;;-2.30;99.90;;;;;;5058748;28;20052;-83
2023/03/01 00:43:03;;;;;;;15.68;9.82;;;-2.30;99.90;;;;;;5063194;28;20032;-83
2023/03/01 00:45:30;;;;;;;17.75;9.45;;;-2.30;99.90;;;;;;5070317;28;20052;-83
2023/03/01 00:47:57;;;;;;;18.60;9.23;;;-2.30;99.90;;;;;;5060531;28;20273;-83
2023/03/01 00:50:25;;;;;;;18.17;10.38;;;-2.30;99.90;;;;;;5055125;28;20119;-83
2023/03/01 00:52:54;;;;;;;16.50;10.07;;;-2.30;99.90;;;;;;5046745;28;20035;-83
2023/03/01 00:55:20;;;;;;;20.23;10.15;;;-2.40;99.90;;;;;;5054376;28;20039;-83
2023/03/01 00:57:46;;;;;;;17.15;9.10;;;-2.40;99.90;;;;;;5066294;28;20025;-82
2023/03/01 01:00:12;;;;;;;18.58;10.55;;;-2.40;99.90;;;;;;5065671;28;20119;-82
2023/03/01 01:02:38;;;;;;;13.00;8.77;;;-2.40;99.90;;;;;;5061755;28;20025;-82
2023/03/01 01:05:04;;;;;;;17.30;9.60;;;-2.40;99.90;;;;;;5070907;28;20115;-82
2023/03/01 01:07:30;;;;;;;17.20;9.32;;;-2.40;99.90;;;;;;5060570;28;20425;-82
2023/03/01 01:09:55;;;;;;;16.45;9.13;;;-2.40;99.90;;;;;;5068915;28;20036;-82
2023/03/01 01:12:21;;;;;;;16.33;8.68;;;-2.50;99.90;;;;;;5068818;28;20024;-82
2023/03/01 01:14:47;;;;;;;15.27;9.15;;;-2.50;99.90;;;;;;5057598;28;20032;-82
2023/03/01 01:17:12;;;;;;;18.88;10.02;;;-2.50;99.90;;;;;;5059698;28;20550;-82
2023/03/01 01:19:38;;;;;;;12.95;8.35;;;-2.50;99.90;;;;;;5067588;28;20024;-82
2023/03/01 01:22:03;;;;;;;12.45;8.13;;;-2.50;99.90;;;;;;5064326;28;20400;-82
2023/03/01 01:24:29;;;;;;;16.85;8.93;;;-2.50;99.90;;;;;;5059408;28;20029;-82
2023/03/01 01:26:55;;;;;;;16.67;9.07;;;-2.50;99.90;;;;;;5061720;28;20355;-82
2023/03/01 01:29:21;;;;;;;20.30;9.68;;;-2.50;99.90;;;;;;5068593;28;20101;-82
2023/03/01 01:31:47;;;;;;;18.15;9.50;;;-2.50;99.90;;;;;;5067716;28;20027;-82
2023/03/01 01:34:21;;;;;;;16.80;8.27;;;-2.50;99.90;;;;;;5059984;28;21397;-82
2023/03/01 01:36:53;;;;;;;14.45;8.35;;;-2.50;99.90;;;;;;5059163;28;20036;-82
2023/03/01 01:39:19;;;;;;;13.18;8.30;;;-2.40;99.90;;;;;;5064509;28;20032;-82
2023/03/01 01:41:45;;;;;;;12.80;7.88;;;-2.40;99.90;;;;;;5064197;28;20067;-82
2023/03/01 01:44:19;;;;;;;13.65;9.02;;;-2.50;99.90;;;;;;5067271;28;22001;-82
2023/03/01 01:46:57;;;;;;;21.15;10.43;;;-2.50;99.90;;;;;;5052918;28;20123;-82
2023/03/01 01:49:38;;;;;;;16.20;8.60;;;-2.50;99.90;;;;;;5055007;28;20374;-84
2023/03/01 01:52:20;;;;;;;15.80;9.25;;;-2.50;99.90;;;;;;5065785;28;20476;-82
2023/03/01 01:55:07;;;;;;;16.92;9.60;;;-2.50;99.90;;;;;;5068017;28;20098;-82
2023/03/01 01:57:45;;;;;;;15.60;9.07;;;-2.50;99.90;;;;;;5062490;28;20471;-82
2023/03/01 02:00:23;;;;;;;16.02;8.52;;;-2.50;99.90;;;;;;5059421;28;20033;-82
2023/03/01 02:02:56;;;;;;;15.32;9.30;;;-2.50;99.90;;;;;;5067177;28;20493;-82
2023/03/01 02:05:47;;;;;;;14.18;8.02;;;-2.60;99.90;;;;;;5055559;28;20032;-82
2023/03/01 02:08:16;;;;;;;18.00;8.38;;;-2.60;99.90;;;;;;5060533;28;20044;-82
2023/03/01 02:10:42;;;;;;;18.85;9.15;;;-2.60;99.90;;;;;;5068454;28;20334;-82
2023/03/01 02:13:09;;;;;;;15.18;8.88;;;-2.60;99.90;;;;;;5064899;28;20477;-82
2023/03/01 02:15:36;;;;;;;16.42;8.50;;;-2.60;99.90;;;;;;5061527;28;20033;-82
2023/03/01 02:18:03;;;;;;;14.30;8.75;;;-2.60;99.90;;;;;;5059179;28;20051;-82
2023/03/01 02:21:01;;;;;;;15.23;9.35;;;-2.60;99.90;;;;;;5062598;28;20025;-81
2023/03/01 02:23:27;;;;;;;12.90;8.02;;;-2.60;99.90;;;;;;5047643;28;20074;-82
2023/03/01 02:26:07;;;;;;;12.90;8.70;;;-2.60;99.90;;;;;;5065512;28;20401;-82
2023/03/01 02:28:37;;;;;;;20.20;8.43;;;-2.60;99.90;;;;;;5062765;28;20020;-81
2023/03/01 02:33:51;;;;;;;19.50;9.25;;;-2.70;99.90;;;;;;5055941;28;20090;-82
2023/03/01 02:36:19;;;;;;;11.88;8.05;;;-2.60;99.90;;;;;;5057249;28;20196;-82
2023/03/01 02:38:47;;;;;;;13.70;8.48;;;-2.70;99.90;;;;;;5060838;28;20608;-82
2023/03/01 02:41:16;;;;;;;12.52;7.32;;;-2.70;99.90;;;;;;5066053;28;20024;-82
2023/03/01 02:43:42;;;;;;;19.20;8.80;;;-2.60;99.90;;;;;;5069857;28;20020;-82
2023/03/01 02:46:17;;;;;;;15.05;8.70;;;-2.60;99.90;;;;;;5064724;28;20037;-82
2023/03/01 02:48:48;;;;;;;14.27;9.20;;;-2.60;99.90;;;;;;5049717;28;20223;-83
2023/03/01 02:51:41;;;;;;;21.48;10.13;;;-2.60;99.90;;;;;;5056320;28;20081;-82
2023/03/01 02:54:28;;;;;;;20.45;9.65;;;-2.70;99.90;;;;;;5065417;28;20052;-82
2023/03/01 02:56:54;;;;;;;18.73;10.02;;;-2.80;99.90;;;;;;5065700;28;20094;-82
2023/03/01 02:59:28;;;;;;;21.40;10.27;;;-2.80;99.90;;;;;;5065248;28;20029;-82
2023/03/01 03:01:54;;;;;;;23.00;9.77;;;-2.90;99.90;;;;;;5062916;28;20119;-82
2023/03/01 03:04:20;;;;;;;22.20;10.95;;;-2.90;99.90;;;;;;5059248;28;20113;-82
2023/03/01 03:06:48;;;;;;;25.30;11.23;;;-2.90;99.90;;;;;;5057626;28;20037;-82
2023/03/01 03:09:14;;;;;;;19.95;10.73;;;-2.90;99.90;;;;;;5066446;28;20388;-82
2023/03/01 03:11:41;;;;;;;18.08;10.07;;;-2.90;99.90;;;;;;5056259;28;20025;-82
2023/03/01 03:14:12;;;;;;;20.35;10.70;;;-2.90;99.90;;;;;;5069817;28;20417;-82
2023/03/01 03:16:43;;;;;;;14.75;9.30;;;-2.80;99.90;;;;;;5054875;28;20469;-82
2023/03/01 03:19:09;;;;;;;18.35;9.27;;;-2.80;99.90;;;;;;5057167;28;20062;-82
2023/03/01 03:21:35;;;;;;;19.77;9.52;;;-2.80;99.90;;;;;;5065313;28;20488;-82
2023/03/01 03:24:01;;;;;;;13.98;8.10;;;-2.80;99.90;;;;;;5065097;28;20026;-82
2023/03/01 03:26:27;;;;;;;13.88;8.80;;;-2.80;99.90;;;;;;5053182;28;20433;-82
2023/03/01 03:28:52;;;;;;;21.08;8.88;;;-2.80;99.90;;;;;;5055016;28;20370;-82
2023/03/01 03:31:18;;;;;;;13.68;8.43;;;-2.80;99.90;;;;;;5048207;28;20025;-82
2023/03/01 03:33:44;;;;;;;14.77;7.28;;;-2.70;99.90;;;;;;5062036;28;20381;-82
2023/03/01 03:36:14;;;;;;;19.75;8.27;;;-2.70;99.90;;;;;;5062499;28;20036;-82
2023/03/01 03:38:40;;;;;;;13.88;8.50;;;-2.80;99.90;;;;;;5057915;28;20044;-82
2023/03/01 03:41:08;;;;;;;12.27;7.65;;;-2.80;99.90;;;;;;5061208;28;20035;-82
2023/03/01 03:43:35;;;;;;;20.02;8.95;;;-2.90;99.90;;;;;;5062571;28;20043;-82
2023/03/01 03:46:05;;;;;;;15.68;8.00;;;-2.90;99.90;;;;;;5061954;28;20067;-82
2023/03/01 03:48:35;;;;;;;14.52;7.90;;;-2.90;99.90;;;;;;5036943;28;20026;-82
2023/03/01 03:51:05;;;;;;;8.88;6.68;;;-2.90;99.90;;;;;;5062543;28;20104;-82
2023/03/01 03:53:31;;;;;;;12.98;7.85;;;-2.80;99.90;;;;;;5063273;28;20108;-82
2023/03/01 03:55:58;;;;;;;14.27;7.22;;;-2.90;99.90;;;;;;5063779;28;20765;-82
2023/03/01 03:58:25;;;;;;;10.57;7.57;;;-2.90;99.90;;;;;;5060192;28;20025;-82
2023/03/01 04:00:55;;;;;;;12.85;7.10;;;-2.90;99.90;;;;;;5064583;28;20396;-82
2023/03/01 04:03:22;;;;;;;18.40;9.13;;;-2.90;99.90;;;;;;5061887;28;20025;-82
2023/03/01 04:05:50;;;;;;;14.25;7.50;;;-3.00;99.90;;;;;;5059381;28;20455;-82
2023/03/01 04:08:19;;;;;;;13.32;8.45;;;-3.00;99.90;;;;;;5058594;28;20032;-82
2023/03/01 04:10:47;;;;;;;19.10;9.48;;;-3.10;99.90;;;;;;5064354;28;20511;-82
2023/03/01 04:13:15;;;;;;;14.23;8.90;;;-3.20;99.90;;;;;;5044858;28;20032;-83
2023/03/01 04:15:42;;;;;;;14.57;8.48;;;-3.20;99.90;;;;;;5063183;28;20423;-82
2023/03/01 04:18:11;;;;;;;17.05;8.23;;;-3.20;99.90;;;;;;5057050;28;20090;-82
2023/03/01 04:20:37;;;;;;;15.45;8.35;;;-3.20;99.90;;;;;;5058779;28;20024;-82
2023/03/01 04:23:12;;;;;;;15.68;8.93;;;-3.20;99.90;;;;;;5048822;28;20370;-82
2023/03/01 04:25:40;;;;;;;11.63;8.23;;;-3.20;99.90;;;;;;5055903;28;20480;-82
2023/03/01 04:28:06;;;;;;;17.98;8.95;;;-3.20;99.90;;;;;;5061412;28;20036;-82
2023/03/01 04:30:35;;;;;;;12.50;9.02;;;-3.20;99.90;;;;;;5064680;28;20421;-82
2023/03/01 04:33:02;;;;;;;27.88;13.85;;;-3.20;99.90;;;;;;5055297;28;20038;-82
2023/03/01 04:35:27;;;;;;;19.40;11.20;;;-3.30;99.90;;;;;;5061595;28;20230;-82
2023/03/01 04:37:53;;;;;;;19.55;11.20;;;-3.30;99.90;;;;;;5054763;28;20067;-82
2023/03/01 04:40:19;;;;;;;15.85;10.40;;;-3.30;99.90;;;;;;5060701;28;20249;-82
2023/03/01 04:42:44;;;;;;;22.27;11.00;;;-3.30;99.90;;;;;;5059222;28;20025;-82
2023/03/01 04:45:13;;;;;;;14.02;8.57;;;-3.30;99.90;;;;;;5060262;28;20029;-84
2023/03/01 04:47:54;;;;;;;19.33;10.07;;;-3.30;99.90;;;;;;5052887;28;20041;-83
2023/03/01 04:50:21;;;;;;;15.48;9.88;;;-3.30;99.90;;;;;;5056978;28;20438;-83
2023/03/01 04:52:47;;;;;;;17.20;9.77;;;-3.30;99.90;;;;;;5052571;28;20029;-83
2023/03/01 04:55:13;;;;;;;18.15;11.10;;;-3.40;99.90;;;;;;5058002;28;20033;-83
2023/03/01 04:57:39;;;;;;;17.65;10.43;;;-3.40;99.90;;;;;;5058117;28;20353;-83
2023/03/01 05:00:19;;;;;;;17.75;10.27;;;-3.40;99.90;;;;;;5050141;28;20028;-83
2023/03/01 05:02:53;;;;;;;19.52;10.82;;;-3.50;99.90;;;;;;5059329;28;20112;-83
2023/03/01 05:05:33;;;;;;;18.55;10.13;;;-3.40;99.90;;;;;;5058422;28;20017;-83
2023/03/01 05:08:00;;;;;;;20.83;11.18;;;-3.40;99.90;;;;;;5054243;28;20548;-83
2023/03/01 05:10:29;;;;;;;22.02;11.07;;;-3.30;99.90;;;;;;5056169;28;20033;-83
2023/03/01 05:12:57;;;;;;;17.90;10.95;;;-3.40;99.90;;;;;;5061015;28;20040;-83
2023/03/01 05:15:25;;;;;;;20.98;11.57;;;-3.40;99.90;;;;;;5061042;28;20120;-83
2023/03/01 05:17:52;;;;;;;20.70;11.32;;;-3.40;99.90;;;;;;5063747;28;20479;-83
2023/03/01 05:20:17;;;;;;;23.92;12.05;;;-3.40;99.90;;;;;;5057553;28;20029;-83
2023/03/01 05:22:43;;;;;;;18.13;10.23;;;-3.40;99.90;;;;;;5064950;28;20507;-83
2023/03/01 05:25:10;;;;;;;18.33;10.98;;;-3.40;99.90;;;;;;5059784;28;20502;-83
2023/03/01 05:27:36;;;;;;;18.95;9.80;;;-3.40;99.90;;;;;;5066707;28;20040;-82
2023/03/01 05:30:13;;;;;;;14.82;9.07;;;-3.30;99.90;;;;;;5064046;28;20035;-82
2023/03/01 05:32:43;;;;;;;16.63;9.90;;;-3.30;99.90;;;;;;5067192;28;20024;-82
2023/03/01 05:35:13;;;;;;;17.45;9.82;;;-3.30;99.90;;;;;;5052374;28;20032;-82
2023/03/01 05:37:45;;;;;;;18.85;10.52;;;-3.40;99.90;;;;;;5056832;28;20473;-82
2023/03/01 05:40:16;;;;;;;16.67;9.77;;;-3.40;99.90;;;;;;5052633;28;20491;-82
2023/03/01 05:42:49;;;;;;;19.23;10.55;;;-3.40;99.90;;;;;;5053059;28;20351;-82
2023/03/01 05:45:16;;;;;;;18.00;10.43;;;-3.40;99.90;;;;;;5065414;28;20087;-82
2023/03/01 05:47:43;;;;;;;20.00;11.27;;;-3.50;99.90;;;;;;5058606;28;20040;-82
2023/03/01 05:50:27;;;;;;;22.42;11.25;;;-3.50;99.90;;;;;;5049875;28;20082;-82
2023/03/01 05:52:57;;;;;;;21.50;11.65;;;-3.50;99.90;;;;;;5061873;28;20024;-81
2023/03/01 05:55:22;;;;;;;18.48;10.23;;;-3.50;99.90;;;;;;5052796;28;20035;-81
2023/03/01 05:57:49;;;;;;;19.83;10.63;;;-3.50;99.90;;;;;;5061092;28;20377;-81
2023/03/01 06:00:17;;;;;;;15.52;10.50;;;-3.40;99.90;;;;;;5057944;28;20040;-82
2023/03/01 06:02:43;;;;;;;15.88;9.52;;;-3.40;99.90;;;;;;5061169;28;21397;-82
2023/03/01 06:05:10;;;;;;;22.92;10.88;;;-3.30;99.90;;;;;;5058672;28;20025;-81
2023/03/01 06:07:36;;;;;;;20.00;11.63;;;-3.40;99.90;;;;;;5066551;28;20029;-81
2023/03/01 06:10:03;;;;;;;17.45;10.05;;;-3.40;99.90;;;;;;5060969;28;20047;-82
2023/03/01 06:12:34;;;;;;;21.73;11.82;;;-3.40;99.90;;;;;;5067356;28;20020;-82
2023/03/01 06:15:00;;;;;;;16.23;10.07;;;-3.40;99.90;;;;;;5072714;28;20021;-81
2023/03/01 06:17:28;;;;;;;20.95;12.35;;;-3.50;99.90;;;;;;5072429;28;20024;-82
2023/03/01 06:19:54;;;;;;;18.73;11.50;;;-3.50;99.90;;;;;;5071587;28;20020;-82
2023/03/01 06:22:19;;;;;;;18.92;11.20;;;-3.60;99.90;;;;;;5070583;28;20350;-82
2023/03/01 06:24:45;;;;;;;18.67;10.80;;;-3.60;99.90;;;;;;5071671;28;20101;-81
2023/03/01 06:27:10;;;;;;;31.13;13.98;;;-3.60;99.90;;;;;;5072750;28;20376;-82
2023/03/01 06:29:36;;;;;;;31.55;13.85;;;-3.60;99.90;;;;;;5071158;28;20078;-82
2023/03/01 06:32:03;;;;;;;21.95;12.13;;;-3.50;99.90;;;;;;5070632;28;20044;-81
2023/03/01 06:34:28;;;;;;;26.00;12.88;;;-3.50;99.90;;;;;;5072245;28;20472;-82
2023/03/01 06:36:54;;;;;;;29.67;12.70;;;-3.50;99.90;;;;;;5069584;28;20071;-81
2023/03/01 06:39:19;;;;;;;25.75;13.20;;;-3.40;99.90;;;;;;5052676;28;20093;-82
2023/03/01 06:41:45;;;;;;;22.65;12.60;;;-3.40;99.90;;;;;;5072319;28;20392;-82
2023/03/01 06:44:11;;;;;;;26.75;14.13;;;-3.30;99.90;;;;;;5071046;28;20392;-81
2023/03/01 06:46:36;;;;;;;32.28;12.82;;;-3.30;99.90;;;;;;5066425;28;20094;-81
2023/03/01 06:49:07;;;;;;;25.55;12.55;;;-3.30;99.90;;;;;;5059676;28;20127;-82
2023/03/01 06:51:33;;;;;;;33.72;13.15;;;-3.20;99.90;;;;;;5059339;28;20020;-82
2023/03/01 06:53:58;;;;;;;24.85;12.88;;;-3.10;99.90;;;;;;5064672;28;20636;-81
2023/03/01 06:56:24;;;;;;;20.73;12.15;;;-3.10;99.90;;;;;;5048858;28;20024;-82
2023/03/01 06:58:49;;;;;;;24.80;12.93;;;-3.10;99.90;;;;;;5064454;28;20021;-82
2023/03/01 07:01:15;;;;;;;31.00;13.80;;;-3.10;99.90;;;;;;5061860;28;20052;-82
2023/03/01 07:03:41;;;;;;;22.65;14.18;;;-3.10;99.90;;;;;;5065057;28;20025;-82
2023/03/01 07:06:06;;;;;;;25.77;13.65;;;-3.00;99.90;;;;;;5061665;28;20439;-81
2023/03/01 07:08:32;;;;;;;25.85;13.30;;;-3.00;99.90;;;;;;5062419;28;20040;-82
2023/03/01 07:10:58;;;;;;;29.15;14.30;;;-2.80;99.90;;;;;;5058839;28;20021;-82
2023/03/01 07:13:24;;;;;;;23.83;13.30;;;-2.80;99.90;;;;;;5066345;28;20124;-82
2023/03/01 07:15:50;;;;;;;22.48;12.73;;;-2.70;99.90;;;;;;5066681;28;20080;-82
2023/03/01 07:18:15;;;;;;;22.23;12.32;;;-2.60;99.90;;;;;;5062822;28;20078;-81
2023/03/01 07:20:41;;;;;;;19.80;12.20;;;-2.60;99.90;;;;;;5064063;28;20028;-82
2023/03/01 07:23:07;;;;;;;20.50;11.60;;;-2.50;99.90;;;;;;5065643;28;20397;-82
2023/03/01 07:25:33;;;;;;;29.35;14.02;;;-2.40;99.90;;;;;;5067521;28;20036;-82
2023/03/01 07:27:58;;;;;;;20.77;12.23;;;-2.30;99.90;;;;;;5061279;28;20037;-82
2023/03/01 07:30:28;;;;;;;30.38;13.25;;;-2.20;99.90;;;;;;5063596;28;20056;-81
2023/03/01 07:32:55;;;;;;;23.80;13.13;;;-2.20;99.90;;;;;;5058524;28;20059;-82
2023/03/01 07:35:22;;;;;;;23.90;14.93;;;-2.10;99.90;;;;;;5048535;28;20472;-82
2023/03/01 07:37:47;;;;;;;26.25;15.45;;;-2.00;99.90;;;;;;5066423;28;20036;-81
2023/03/01 07:40:13;;;;;;;31.15;17.50;;;-2.00;99.90;;;;;;5061699;28;20107;-81
2023/03/01 07:42:39;;;;;;;24.77;14.07;;;-1.90;99.90;;;;;;5048429;28;20029;-82
2023/03/01 07:45:06;;;;;;;28.13;14.98;;;-1.80;99.90;;;;;;5056398;28;20035;-81
2023/03/01 07:47:32;;;;;;;24.65;15.45;;;-1.70;99.90;;;;;;5055302;28;20047;-81
2023/03/01 07:49:57;;;;;;;30.48;15.73;;;-1.70;99.90;;;;;;5053247;28;20411;-82
2023/03/01 07:52:23;;;;;;;29.58;16.65;;;-1.60;99.90;;;;;;5045309;28;20024;-82
2023/03/01 07:54:49;;;;;;;30.48;15.80;;;-1.40;99.90;;;;;;5065963;28;20017;-81
2023/03/01 07:57:14;;;;;;;29.63;14.50;;;-1.30;99.90;;;;;;5060604;28;20033;-82
2023/03/01 07:59:43;;;;;;;26.40;14.93;;;-1.20;99.90;;;;;;5067952;28;20550;-81
2023/03/01 08:02:09;;;;;;;29.15;15.18;;;-1.10;99.90;;;;;;5059154;28;20420;-81
2023/03/01 08:04:35;;;;;;;24.95;14.18;;;-1.10;99.90;;;;;;5064809;28;20035;-81
2023/03/01 08:07:00;;;;;;;30.17;16.10;;;-1.00;99.90;;;;;;5067591;28;20044;-81
2023/03/01 08:09:26;;;;;;;28.75;15.75;;;-1.00;99.90;;;;;;5063694;28;20382;-81
2023/03/01 08:11:51;;;;;;;28.10;15.85;;;-1.00;99.90;;;;;;5065642;28;20073;-82
2023/03/01 08:14:17;;;;;;;24.50;14.55;;;-0.90;99.90;;;;;;5066701;28;20082;-81
2023/03/01 08:16:43;;;;;;;28.67;14.35;;;-0.90;99.90;;;;;;5060176;28;20104;-81
2023/03/01 08:19:11;;;;;;;23.45;13.18;;;-0.80;99.90;;;;;;5060610;28;20036;-80
2023/03/01 08:21:37;;;;;;;19.63;12.55;;;-0.80;99.90;;;;;;5045622;28;20358;-80
2023/03/01 08:24:05;;;;;;;30.10;15.45;;;-0.70;99.90;;;;;;5063096;28;20029;-80
2023/03/01 08:26:32;;;;;;;25.88;14.57;;;-0.70;99.90;;;;;;5051981;28;20037;-80
2023/03/01 08:28:59;;;;;;;25.85;13.63;;;-0.60;99.90;;;;;;5062707;28;20025;-80
2023/03/01 08:31:31;;;;;;;26.25;14.52;;;-0.60;99.90;;;;;;5055165;28;20025;-80
2023/03/01 08:33:59;;;;;;;28.58;14.60;;;-0.60;99.90;;;;;;5061673;28;20062;-81
2023/03/01 08:36:27;;;;;;;27.25;15.32;;;-0.50;99.90;;;;;;5060238;28;20321;-80
2023/03/01 08:38:53;;;;;;;28.45;15.13;;;-0.40;99.90;;;;;;5066859;28;20068;-79
2023/03/01 08:41:19;;;;;;;26.35;14.80;;;-0.40;99.90;;;;;;5067698;28;20025;-79
2023/03/01 08:43:44;;;;;;;28.38;14.35;;;-0.30;99.90;;;;;;5067423;28;20456;-79
2023/03/01 08:46:12;;;;;;;24.10;13.63;;;-0.20;99.90;;;;;;5066803;28;20090;-80
2023/03/01 08:48:37;;;;;;;28.77;14.45;;;-0.20;99.90;;;;;;5057671;28;20105;-80
2023/03/01 08:51:09;;;;;;;24.38;13.80;;;-0.10;99.90;;;;;;5066882;28;20509;-79
2023/03/01 08:53:34;;;;;;;24.77;13.82;;;0.00;99.90;;;;;;5066868;28;20028;-78
2023/03/01 08:56:04;;;;;;;31.80;14.52;;;0.00;99.90;;;;;;5069833;28;20032;-79
2023/03/01 08:58:30;;;;;;;28.17;14.00;;;0.10;99.90;;;;;;5071313;28;20530;-79
2023/03/01 09:00:58;;;;;;;26.02;13.82;;;0.10;99.90;;;;;;5070438;28;20024;-78
2023/03/01 09:03:24;;;;;;;26.42;13.55;;;0.20;99.90;;;;;;5070636;28;20481;-78
2023/03/01 09:05:51;;;;;;;24.35;13.45;;;0.20;99.90;;;;;;5053208;28;20039;-78
2023/03/01 09:08:18;;;;;;;24.98;13.05;;;0.30;99.90;;;;;;5069828;28;20036;-77
2023/03/01 09:10:44;;;;;;;23.67;12.27;;;0.30;99.90;;;;;;5070669;28;20108;-76
2023/03/01 09:13:09;;;;;;;25.63;14.50;;;0.40;99.90;;;;;;5070945;28;20111;-78
2023/03/01 09:15:37;;;;;;;31.20;14.90;;;0.50;99.90;;;;;;5070727;28;20999;-78
2023/03/01 09:18:03;;;;;;;29.75;13.90;;;0.50;99.90;;;;;;5070673;28;20031;-77
2023/03/01 09:20:30;;;;;;;29.48;14.90;;;0.60;99.90;;;;;;5067812;28;20107;-77
2023/03/01 09:22:56;;;;;;;29.17;15.70;;;0.60;99.90;;;;;;5065441;28;20107;-77
2023/03/01 09:25:22;;;;;;;42.00;21.05;;;0.70;99.90;;;;;;5059191;28;20029;-78
2023/03/01 09:27:51;;;;;;;37.40;19.55;;;0.80;99.90;;;;;;5064430;28;20058;-77
2023/03/01 09:30:17;;;;;;;31.40;16.77;;;0.80;99.90;;;;;;5071004;28;20060;-77
2023/03/01 09:32:44;;;;;;;38.75;16.92;;;0.80;99.90;;;;;;5072648;28;20453;-77
2023/03/01 09:35:10;;;;;;;30.90;16.05;;;0.90;99.90;;;;;;5074049;28;20057;-76
2023/03/01 09:37:37;;;;;;;29.75;16.13;;;0.90;99.90;;;;;;5073411;28;20083;-77
2023/03/01 09:40:05;;;;;;;24.15;13.40;;;0.90;99.90;;;;;;5071221;28;20476;-77
2023/03/01 09:42:34;;;;;;;21.05;13.75;;;1.00;99.90;;;;;;5072084;28;20048;-76
2023/03/01 09:45:38;;;;;;;23.83;13.40;;;1.00;99.90;;;;;;5071684;28;20086;-78
2023/03/01 09:48:09;;;;;;;23.08;12.88;;;1.10;99.90;;;;;;5049635;28;20045;-78
2023/03/01 09:50:39;;;;;;;26.63;14.23;;;1.20;99.90;;;;;;5053926;28;20109;-78
2023/03/01 09:53:16;;;;;;;23.42;13.90;;;1.20;99.90;;;;;;5070501;28;20032;-77
2023/03/01 09:56:01;;;;;;;29.80;13.07;;;1.30;99.90;;;;;;5073123;28;20028;-78
2023/03/01 09:58:58;;;;;;;31.00;16.23;;;1.40;99.90;;;;;;5052781;28;20033;-78
2023/03/01 10:01:52;;;;;;;26.08;14.15;;;1.50;99.90;;;;;;5053086;28;20060;-78
2023/03/01 10:04:48;;;;;;;25.67;12.63;;;1.50;99.90;;;;;;5062840;28;20033;-77
2023/03/01 10:07:26;;;;;;;;;;;1.50;99.90;;;;;;5038125;28;20098;-77
2023/03/01 10:09:52;;;;;;;26.25;12.50;;;1.50;99.90;;;;;;5067684;28;19909;-78
2023/03/01 10:12:26;;;;;;;29.77;14.07;;;1.50;99.90;;;;;;5064660;28;20532;-77
2023/03/01 10:15:02;;;;;;;29.00;14.70;;;1.60;99.90;;;;;;5072871;28;20035;-78
2023/03/01 10:17:46;;;;;;;25.63;11.48;;;1.60;99.90;;;;;;5066964;28;20098;-77
2023/03/01 10:20:22;;;;;;;23.52;11.60;;;1.70;99.90;;;;;;5065575;28;21083;-77
2023/03/01 10:22:52;;;;;;;31.23;11.30;;;1.70;99.90;;;;;;5072427;28;20025;-77
2023/03/01 10:25:38;;;;;;;18.80;11.30;;;1.80;99.90;;;;;;5072810;28;20028;-77
2023/03/01 10:28:22;;;;;;;22.95;12.13;;;1.80;99.90;;;;;;5031152;28;20045;-77
2023/03/01 10:30:47;;;;;;;28.33;14.50;;;1.80;99.90;;;;;;5068872;28;20025;-76
2023/03/01 10:33:25;;;;;;;32.08;13.38;;;1.90;99.90;;;;;;5065011;28;20603;-77
2023/03/01 10:35:50;;;;;;;25.98;12.75;;;1.90;99.90;;;;;;5058277;28;20038;-78
2023/03/01 10:38:20;;;;;;;25.05;13.00;;;1.90;99.90;;;;;;5063891;28;20053;-76
2023/03/01 10:41:01;;;;;;;28.35;13.63;;;1.90;99.90;;;;;;5064116;28;20025;-77
2023/03/01 10:43:42;;;;;;;20.35;12.25;;;2.00;99.90;;;;;;5062385;28;20474;-77
2023/03/01 10:46:25;;;;;;;28.88;13.73;;;2.00;99.90;;;;;;5057394;28;20035;-77
2023/03/01 10:49:20;;;;;;;26.85;14.65;;;2.00;99.90;;;;;;5059500;28;20044;-77
2023/03/01 10:51:50;;;;;;;30.23;13.77;;;2.10;99.90;;;;;;5059332;28;20036;-77
2023/03/01 10:54:30;;;;;;;27.15;12.18;;;2.20;99.90;;;;;;5058925;28;20029;-77
2023/03/01 10:56:58;;;;;;;19.83;10.98;;;2.20;99.90;;;;;;5064662;28;20032;-77
2023/03/01 10:59:24;;;;;;;22.98;10.40;;;2.20;99.90;;;;;;5050177;28;20192;-77
2023/03/01 11:02:04;;;;;;;22.42;11.25;;;2.30;99.90;;;;;;5064386;28;20127;-78
2023/03/01 11:04:30;;;;;;;23.83;11.93;;;2.30;99.90;;;;;;5068733;28;20025;-78
2023/03/01 11:07:00;;;;;;;23.25;11.68;;;2.40;99.90;;;;;;5053774;28;20044;-79
2023/03/01 11:09:31;;;;;;;25.88;13.77;;;2.40;99.90;;;;;;5067404;28;20089;-77
2023/03/01 11:12:00;;;;;;;26.08;12.88;;;2.40;99.90;;;;;;5055867;28;20067;-77
2023/03/01 11:14:36;;;;;;;27.63;12.48;;;2.40;99.90;;;;;;5061047;28;20056;-77
2023/03/01 11:17:12;;;;;;;29.77;12.73;;;2.40;99.90;;;;;;5064347;28;20094;-78
2023/03/01 11:19:37;;;;;;;27.50;12.23;;;2.40;99.90;;;;;;5057145;28;20108;-77
2023/03/01 11:22:14;;;;;;;24.15;12.00;;;2.40;99.90;;;;;;5054394;28;20429;-77
2023/03/01 11:24:54;;;;;;;27.00;12.10;;;2.40;99.90;;;;;;5051260;28;20477;-77
2023/03/01 11:27:29;;;;;;;31.92;11.32;;;2.50;99.90;;;;;;5062555;28;20043;-77
2023/03/01 11:30:22;;;;;;;27.13;11.77;;;2.60;99.90;;;;;;5054061;28;20033;-77
2023/03/01 11:32:53;;;;;;;27.80;11.73;;;2.60;99.90;;;;;;5061926;28;20035;-77
2023/03/01 11:35:26;;;;;;;22.08;10.88;;;2.60;99.90;;;;;;5067773;28;20415;-77
2023/03/01 11:38:13;;;;;;;23.92;12.38;;;2.60;99.90;;;;;;5057666;28;20064;-78
2023/03/01 11:40:53;;;;;;;22.45;11.30;;;2.60;99.90;;;;;;5057794;28;20478;-77
2023/03/01 11:43:58;;;;;;;22.48;11.40;;;2.70;99.90;;;;;;5059306;28;20028;-78
2023/03/01 11:47:02;;;;;;;24.60;11.15;;;2.70;99.90;;;;;;5050783;28;20096;-78
2023/03/01 11:49:45;;;;;;;23.92;10.27;;;2.70;99.90;;;;;;4993999;28;20125;-77
2023/03/01 11:52:36;;;;;;;21.88;10.23;;;2.70;99.90;;;;;;5060658;28;20868;-77
2023/03/01 11:55:20;;;;;;;22.27;11.43;;;2.80;99.90;;;;;;5038014;28;20146;-77
2023/03/01 11:57:51;;;;;;;23.15;10.68;;;2.80;99.90;;;;;;5056757;28;20031;-78
2023/03/01 12:00:26;;;;;;;22.13;11.70;;;2.80;99.90;;;;;;5052698;28;20035;-77
2023/03/01 12:03:13;;;;;;;19.97;10.70;;;2.80;99.90;;;;;;5065865;28;20067;-77
2023/03/01 12:06:06;;;;;;;17.65;10.38;;;2.90;99.90;;;;;;5051985;28;20024;-78
2023/03/01 12:09:07;;;;;;;23.30;11.43;;;2.90;99.90;;;;;;5060425;28;20037;-78
2023/03/01 12:11:47;;;;;;;19.90;9.98;;;2.90;99.90;;;;;;4980192;28;20033;-78
2023/03/01 12:14:28;;;;;;;15.73;9.02;;;3.00;99.90;;;;;;5043934;28;20045;-77
2023/03/01 12:17:12;;;;;;;21.25;10.02;;;3.10;99.90;;;;;;5044449;28;20040;-80
2023/03/01 12:20:09;;;;;;;22.60;9.57;;;3.20;99.90;;;;;;5060013;28;20074;-77
2023/03/01 12:22:55;;;;;;;19.52;11.02;;;3.20;99.90;;;;;;5063719;28;20032;-80
2023/03/01 12:25:24;;;;;;;;;;;3.20;99.90;;;;;;5054766;28;20048;-78
2023/03/01 12:28:27;;;;;;;21.48;10.10;;;3.30;99.90;;;;;;5064931;28;20398;-80
2023/03/01 12:31:14;;;;;;;18.58;9.32;;;3.30;99.90;;;;;;5049741;28;20060;-78
2023/03/01 12:33:59;;;;;;;16.10;8.73;;;3.40;99.90;;;;;;5060367;28;20108;-80
2023/03/01 12:36:42;;;;;;;20.85;10.30;;;3.40;99.90;;;;;;5058275;28;20031;-78
2023/03/01 12:39:32;;;;;;;18.50;10.02;;;3.50;99.90;;;;;;5063828;28;20497;-79
2023/03/01 12:42:26;;;;;;;14.13;8.45;;;3.70;99.90;;;;;;5056137;28;20562;-78
2023/03/01 12:45:06;;;;;;;26.02;9.43;;;3.70;99.90;;;;;;5055890;28;20047;-79
2023/03/01 12:47:39;;;;;;;14.65;8.80;;;3.70;99.90;;;;;;5047369;28;20052;-78
2023/03/01 12:50:19;;;;;;;16.67;8.48;;;3.70;99.90;;;;;;5053599;28;20032;-80
2023/03/01 12:52:51;;;;;;;18.98;9.50;;;3.70;99.90;;;;;;5066797;28;20033;-77
2023/03/01 12:55:37;;;;;;;14.45;7.85;;;3.90;99.90;;;;;;5062031;28;20424;-77